Other Surface Observations
Issued by NWS Missoula, MT

Home | Current Version | Previous Version | Text Only | Print | Product List | Glossary On
Versions: 1 2 3 4 5 6 7 8 9 10 11 12 13 14 15 16 17 18 19 20 21 22 23 24 25 26 27 28 29 30 31 32 33 34 35 36 37 38 39 40 41 42 43 44 45 46 47 48 49 50
000
SXUS55 KMSO 040843
OSOMSO
MONTANA AWOS SUMMARY
NATIONAL WEATHER SERVICE MISSOULA MT
243 AM MDT FRI SEP 4 2015

Montana AWOS Reports

LAUREL      |K6S8 040835Z AUTO 34007KT 40SM 12/07 A2989 RMK AO1 T01220067
TWIN BRIDGES|K7S1 040835Z AUTO 34012G17KT 25SM 09/06 A2993 RMK AO1 T00940056
ROUNDUP     |KRPX 040835Z AUTO 33006KT 7SM 13/06 A2989 RMK AO1 T01280061
MALTA       |KM75 040835Z AUTO 34011G16KT 40SM 13/04 A2989 RMK AO1 T01330039




USA.gov is the U.S. government's official web portal to all federal, state and local government web resources and services.